Victorious Ace — 3FTR4 — position and weather

sailwx.info

Track history (hours):
 
Tides and Currents Weather Stations Pressure Air Temp Water Temp Dewpoint Dewpoint Depression Visibility Wind Speed Wind Dir Waves Ship Positions

Victorious Ace

Last reported at 2017-Sep-21 08:48 UTC. Time now 2017-Sep-25 06:32 UTC.
Position N 30°37' E 032°19'.

Length 200 m; draft 9.5 m.

Type: Ship. MMSI: 356541000.

Date/timePositionNaut miles runAvg speedWind from/ knotsBaromVisibWave heightAir tempDewpointWater temp
2017-Sep-21 08:48N 30°37' E 032°19'22 8.9
2017-Sep-21 06:23N 30°58' E 032°19'17 7.8
2017-Sep-21 04:14N 31°15' E 032°21'8 9.3
2017-Sep-21 03:24N 31°23' E 032°23'3 6.5
2017-Sep-21 03:01N 31°23' E 032°20'1 2.7
2017-Sep-21 02:29N 31°24' E 032°18'0 0.0
2017-Sep-20 23:05N 31°24' E 032°19'0 0.0
2017-Sep-20 22:53N 31°24' E 032°19'0 0.0
2017-Sep-20 22:26N 31°24' E 032°19'0 0.0
2017-Sep-20 21:05N 31°24' E 032°18'0 0.0
2017-Sep-20 20:35N 31°24' E 032°19'0 0.1
2017-Sep-20 20:29N 31°24' E 032°18'5 1.3
2017-Sep-20 16:25N 31°28' E 032°15'13 9.8
2017-Sep-20 15:07N 31°38' E 032°05'46213.0
2017-Sep-19 03:31N 34°03' E 023°24'014.8
2017-Sep-19 03:30N 34°03' E 023°23'2214.4
2017-Sep-19 02:00N 34°10' E 022°58'714.2
2017-Sep-19 01:31N 34°12' E 022°50'1214.4
2017-Sep-19 00:41N 34°16' E 022°37'514.2
2017-Sep-19 00:21N 34°17' E 022°31'714.2
2017-Sep-18 23:53N 34°19' E 022°24'1214.2
2017-Sep-18 23:04N 34°22' E 022°10'113.9
2017-Sep-18 22:59N 34°23' E 022°09'4014.1
2017-Sep-18 20:08N 34°34' E 021°22'314.1
2017-Sep-18 19:54N 34°35' E 021°18'717.1
2017-Sep-18 19:31N 34°37' E 021°10'918.0
2017-Sep-18 19:00N 34°40' E 020°60'914.5
2017-Sep-18 18:22N 34°43' E 020°49'514.1
2017-Sep-18 18:00N 34°44' E 020°43'714.1
2017-Sep-18 17:30N 34°46' E 020°35'714.1
2017-Sep-18 17:01N 34°48' E 020°27'714.2
2017-Sep-18 16:30N 34°50' E 020°18'1814.3
2017-Sep-18 15:15N 34°56' E 019°57'614.4
2017-Sep-18 14:51N 34°57' E 019°51'514.3
2017-Sep-18 14:29N 34°59' E 019°45'714.4
2017-Sep-18 14:00N 35°01' E 019°37'714.4
2017-Sep-18 13:30N 35°03' E 019°28'714.4
2017-Sep-18 13:00N 35°05' E 019°20'714.3
2017-Sep-18 12:30N 35°07' E 019°11'714.2
2017-Sep-18 12:00N 35°09' E 019°03'714.2
2017-Sep-18 11:30N 35°11' E 018°54'714.3
2017-Sep-18 11:00N 35°13' E 018°46'714.3
2017-Sep-18 10:30N 35°14' E 018°38'914.3
2017-Sep-18 09:52N 35°17' E 018°27'1414.2
2017-Sep-18 08:54N 35°22' E 018°11'11716.8
2017-Sep-18 01:57N 35°56' E 015°54'1616.7
2017-Sep-18 01:00N 36°01' E 015°35'816.4
2017-Sep-18 00:30N 36°03' E 015°25'1016.7
2017-Sep-17 23:54N 36°06' E 015°13'716.8
2017-Sep-17 23:30N 36°08' E 015°05'816.8
2017-Sep-17 23:00N 36°10' E 014°55'816.6
2017-Sep-17 22:30N 36°12' E 014°45'816.7
2017-Sep-17 22:01N 36°15' E 014°36'816.8
2017-Sep-17 21:30N 36°17' E 014°26'816.6
2017-Sep-17 21:01N 36°19' E 014°16'816.7
2017-Sep-17 20:30N 36°22' E 014°06'816.7
2017-Sep-17 20:00N 36°24' E 013°56'917.1
2017-Sep-17 19:30N 36°27' E 013°46'918.7
2017-Sep-17 19:00N 36°30' E 013°35'815.7
2017-Sep-17 18:30N 36°33' E 013°26'713.9
2017-Sep-17 18:00N 36°35' E 013°17'713.7
2017-Sep-17 17:30N 36°37' E 013°09'713.6
2017-Sep-17 17:00N 36°39' E 013°01'713.5
2017-Sep-17 16:30N 36°41' E 012°53'713.5
2017-Sep-17 16:00N 36°43' E 012°45'713.5
2017-Sep-17 15:30N 36°45' E 012°37'713.5
2017-Sep-17 15:00N 36°47' E 012°29'  
2017-Sep-15 06:24N 36°01' W 005°07'718.9
2017-Sep-15 06:00N 36°00' W 005°17'918.7
2017-Sep-15 05:30N 35°57' W 005°28'3716.8
2017-Sep-15 03:20N 35°54' W 006°13'616.9
2017-Sep-15 03:00N 35°55' W 006°19'916.6
2017-Sep-15 02:29N 35°58' W 006°30'816.9
2017-Sep-15 01:59N 35°60' W 006°39'916.7
2017-Sep-15 01:28N 36°02' W 006°50'916.6
2017-Sep-15 00:56N 36°04' W 007°01'1216.4
2017-Sep-15 00:13N 36°07' W 007°15'716.3
2017-Sep-14 23:47N 36°09' W 007°23'1016.5
2017-Sep-14 23:10N 36°12' W 007°35'416.8
2017-Sep-14 22:55N 36°13' W 007°40'717.2
2017-Sep-14 22:29N 36°15' W 007°49'1216.5
2017-Sep-14 21:45N 36°18' W 008°03'416.3
2017-Sep-14 21:30N 36°19' W 008°08'916.7
2017-Sep-14 20:58N 36°21' W 008°19'816.9
2017-Sep-14 20:30N 36°24' W 008°28'918.6
2017-Sep-14 20:00N 36°26' W 008°39'815.5
2017-Sep-14 19:30N 36°28' W 008°49'714.2
2017-Sep-14 19:00N 36°30' W 008°57'714.1
2017-Sep-14 18:30N 36°32' W 009°05'713.9
2017-Sep-14 18:00N 36°34' W 009°14'713.5
2017-Sep-14 17:30N 36°38' W 009°21'714.0
2017-Sep-14 17:00N 36°42' W 009°28'713.7
2017-Sep-14 16:30N 36°48' W 009°33'714.3
2017-Sep-14 16:00N 36°55' W 009°35'714.4
2017-Sep-14 15:31N 37°02' W 009°37'714.2
2017-Sep-14 15:00N 37°08' W 009°39'814.4
2017-Sep-14 14:29N 37°16' W 009°42'715.1
2017-Sep-14 14:01N 37°23' W 009°44'714.9
2017-Sep-14 13:30N 37°30' W 009°45'714.6
2017-Sep-14 13:01N 37°37' W 009°47'714.1
2017-Sep-14 12:31N 37°44' W 009°49'713.9
2017-Sep-14 12:00N 37°51' W 009°51'713.9
2017-Sep-14 11:30N 37°57' W 009°54'713.9
2017-Sep-14 11:00N 38°04' W 009°56'714.0
2017-Sep-14 10:31N 38°11' W 009°58'714.2
2017-Sep-14 10:00N 38°18' W 009°60'714.6
2017-Sep-14 09:31N 38°25' W 010°02'714.4
2017-Sep-14 09:00N 38°32' W 010°03'714.9
2017-Sep-14 08:31N 38°39' W 010°05'917.9
2017-Sep-14 08:01N 38°48' W 010°06'917.3
2017-Sep-14 07:31N 38°57' W 010°06'714.5
2017-Sep-14 07:00N 39°04' W 010°06'714.2
2017-Sep-14 06:30N 39°11' W 010°06'714.5
2017-Sep-14 06:00N 39°19' W 010°06'1214.6
2017-Sep-14 05:09N 39°31' W 010°06'314.4
2017-Sep-14 04:57N 39°34' W 010°06'59014.6
2017-Sep-12 12:28N 48°54' W 005°47'715.3
2017-Sep-12 11:59N 48°58' W 005°38'5914.4
2017-Sep-12 07:53N 49°29' W 004°21'1015.8
2017-Sep-12 07:15N 49°34' W 004°08'312.7
2017-Sep-12 07:00N 49°36' W 004°04'612.2
2017-Sep-12 06:30N 49°40' W 003°57'612.5
2017-Sep-12 06:00N 49°43' W 003°48'713.2
2017-Sep-12 05:30N 49°46' W 003°39'713.7
2017-Sep-12 05:01N 49°49' W 003°30'714.1
2017-Sep-12 04:30N 49°53' W 003°21'714.1
2017-Sep-12 04:01N 49°57' W 003°11'713.7
2017-Sep-12 03:31N 49°59' W 003°01'713.4
2017-Sep-12 03:01N 50°00' W 002°51'713.1
2017-Sep-12 02:30N 50°03' W 002°42'712.5
2017-Sep-12 01:59N 50°05' W 002°32'911.3
2017-Sep-12 01:12N 50°08' W 002°19'210.7
2017-Sep-12 00:59N 50°09' W 002°15'510.3
2017-Sep-12 00:30N 50°11' W 002°09'5 9.8
2017-Sep-12 00:00N 50°13' W 002°02'5 9.3
2017-Sep-11 23:30N 50°15' W 001°55'5 9.2
2017-Sep-11 23:00N 50°17' W 001°49'5 9.2
2017-Sep-11 22:30N 50°19' W 001°43'5 9.7
2017-Sep-11 22:00N 50°21' W 001°36'510.2
2017-Sep-11 21:29N 50°24' W 001°28'510.8
2017-Sep-11 21:01N 50°26' W 001°21'713.3
2017-Sep-11 20:30N 50°29' W 001°12'917.1
2017-Sep-11 20:01N 50°33' W 001°00'713.6
2017-Sep-11 19:31N 50°40' W 000°58'4 7.7
2017-Sep-11 19:01N 50°43' W 001°02'713.1
2017-Sep-11 18:30N 50°46' W 001°11'5 9.6
2017-Sep-11 18:00N 50°48' W 001°18'5 9.8
2017-Sep-11 17:30N 50°52' W 001°22'1 2.6
2017-Sep-11 16:59N 50°53' W 001°24'0 0.0
2017-Sep-11 16:29N 50°53' W 001°24'0 0.0
2017-Sep-11 15:59N 50°53' W 001°24'0 0.0
2017-Sep-11 15:29N 50°53' W 001°24'0 0.0
2017-Sep-11 14:59N 50°53' W 001°24'0 0.0
2017-Sep-11 14:29N 50°53' W 001°24'0 0.0
2017-Sep-11 13:56N 50°53' W 001°24'0 0.0
2017-Sep-11 13:26N 50°53' W 001°24'0 0.0
2017-Sep-11 12:59N 50°53' W 001°24'0 0.0
2017-Sep-11 12:29N 50°53' W 001°24'0 0.0
2017-Sep-11 11:59N 50°53' W 001°24'0 0.0
2017-Sep-11 11:29N 50°53' W 001°24'0 0.0
2017-Sep-11 10:59N 50°53' W 001°24'0 0.0
2017-Sep-11 10:29N 50°53' W 001°24'0 0.0
2017-Sep-11 09:59N 50°53' W 001°24'0 0.0
2017-Sep-11 09:29N 50°53' W 001°24'0 0.0
2017-Sep-11 08:59N 50°53' W 001°24'  
Track history (hours):
 
Tides and Currents Weather Stations Pressure Air Temp Water Temp Dewpoint Dewpoint Depression Visibility Wind Speed Wind Dir Waves Ship Positions

Victorious Ace

Last reported at 2017-Sep-21 08:48 UTC. Time now 2017-Sep-25 06:32 UTC.
Position N 30°37' E 032°19'.

Length 200 m; draft 9.5 m.

Type: Ship. MMSI: 356541000.

Date/timePositionNaut miles runAvg speedWind from/ knotsBaromVisibWave heightAir tempDewpointWater temp
2017-Sep-21 08:48N 30°37' E 032°19'22 8.9
2017-Sep-21 06:23N 30°58' E 032°19'17 7.8
2017-Sep-21 04:14N 31°15' E 032°21'8 9.3
2017-Sep-21 03:24N 31°23' E 032°23'3 6.5
2017-Sep-21 03:01N 31°23' E 032°20'1 2.7
2017-Sep-21 02:29N 31°24' E 032°18'0 0.0
2017-Sep-20 23:05N 31°24' E 032°19'0 0.0
2017-Sep-20 22:53N 31°24' E 032°19'0 0.0
2017-Sep-20 22:26N 31°24' E 032°19'0 0.0
2017-Sep-20 21:05N 31°24' E 032°18'0 0.0
2017-Sep-20 20:35N 31°24' E 032°19'0 0.1
2017-Sep-20 20:29N 31°24' E 032°18'5 1.3
2017-Sep-20 16:25N 31°28' E 032°15'13 9.8
2017-Sep-20 15:07N 31°38' E 032°05'46213.0
2017-Sep-19 03:31N 34°03' E 023°24'014.8
2017-Sep-19 03:30N 34°03' E 023°23'2214.4
2017-Sep-19 02:00N 34°10' E 022°58'714.2
2017-Sep-19 01:31N 34°12' E 022°50'1214.4
2017-Sep-19 00:41N 34°16' E 022°37'514.2
2017-Sep-19 00:21N 34°17' E 022°31'714.2
2017-Sep-18 23:53N 34°19' E 022°24'1214.2
2017-Sep-18 23:04N 34°22' E 022°10'113.9
2017-Sep-18 22:59N 34°23' E 022°09'4014.1
2017-Sep-18 20:08N 34°34' E 021°22'314.1
2017-Sep-18 19:54N 34°35' E 021°18'717.1
2017-Sep-18 19:31N 34°37' E 021°10'918.0
2017-Sep-18 19:00N 34°40' E 020°60'914.5
2017-Sep-18 18:22N 34°43' E 020°49'514.1
2017-Sep-18 18:00N 34°44' E 020°43'714.1
2017-Sep-18 17:30N 34°46' E 020°35'714.1
2017-Sep-18 17:01N 34°48' E 020°27'714.2
2017-Sep-18 16:30N 34°50' E 020°18'1814.3
2017-Sep-18 15:15N 34°56' E 019°57'614.4
2017-Sep-18 14:51N 34°57' E 019°51'514.3
2017-Sep-18 14:29N 34°59' E 019°45'714.4
2017-Sep-18 14:00N 35°01' E 019°37'714.4
2017-Sep-18 13:30N 35°03' E 019°28'714.4
2017-Sep-18 13:00N 35°05' E 019°20'714.3
2017-Sep-18 12:30N 35°07' E 019°11'714.2
2017-Sep-18 12:00N 35°09' E 019°03'714.2
2017-Sep-18 11:30N 35°11' E 018°54'714.3
2017-Sep-18 11:00N 35°13' E 018°46'714.3
2017-Sep-18 10:30N 35°14' E 018°38'914.3
2017-Sep-18 09:52N 35°17' E 018°27'1414.2
2017-Sep-18 08:54N 35°22' E 018°11'11716.8
2017-Sep-18 01:57N 35°56' E 015°54'1616.7
2017-Sep-18 01:00N 36°01' E 015°35'816.4
2017-Sep-18 00:30N 36°03' E 015°25'1016.7
2017-Sep-17 23:54N 36°06' E 015°13'716.8
2017-Sep-17 23:30N 36°08' E 015°05'816.8
2017-Sep-17 23:00N 36°10' E 014°55'816.6
2017-Sep-17 22:30N 36°12' E 014°45'816.7
2017-Sep-17 22:01N 36°15' E 014°36'816.8
2017-Sep-17 21:30N 36°17' E 014°26'816.6
2017-Sep-17 21:01N 36°19' E 014°16'816.7
2017-Sep-17 20:30N 36°22' E 014°06'816.7
2017-Sep-17 20:00N 36°24' E 013°56'917.1
2017-Sep-17 19:30N 36°27' E 013°46'918.7
2017-Sep-17 19:00N 36°30' E 013°35'815.7
2017-Sep-17 18:30N 36°33' E 013°26'713.9
2017-Sep-17 18:00N 36°35' E 013°17'713.7
2017-Sep-17 17:30N 36°37' E 013°09'713.6
2017-Sep-17 17:00N 36°39' E 013°01'713.5
2017-Sep-17 16:30N 36°41' E 012°53'713.5
2017-Sep-17 16:00N 36°43' E 012°45'713.5
2017-Sep-17 15:30N 36°45' E 012°37'713.5
2017-Sep-17 15:00N 36°47' E 012°29'  
2017-Sep-15 06:24N 36°01' W 005°07'718.9
2017-Sep-15 06:00N 36°00' W 005°17'918.7
2017-Sep-15 05:30N 35°57' W 005°28'3716.8
2017-Sep-15 03:20N 35°54' W 006°13'616.9
2017-Sep-15 03:00N 35°55' W 006°19'916.6
2017-Sep-15 02:29N 35°58' W 006°30'816.9
2017-Sep-15 01:59N 35°60' W 006°39'916.7
2017-Sep-15 01:28N 36°02' W 006°50'916.6
2017-Sep-15 00:56N 36°04' W 007°01'1216.4
2017-Sep-15 00:13N 36°07' W 007°15'716.3
2017-Sep-14 23:47N 36°09' W 007°23'1016.5
2017-Sep-14 23:10N 36°12' W 007°35'416.8
2017-Sep-14 22:55N 36°13' W 007°40'717.2
2017-Sep-14 22:29N 36°15' W 007°49'1216.5
2017-Sep-14 21:45N 36°18' W 008°03'416.3
2017-Sep-14 21:30N 36°19' W 008°08'916.7
2017-Sep-14 20:58N 36°21' W 008°19'816.9
2017-Sep-14 20:30N 36°24' W 008°28'918.6
2017-Sep-14 20:00N 36°26' W 008°39'815.5
2017-Sep-14 19:30N 36°28' W 008°49'714.2
2017-Sep-14 19:00N 36°30' W 008°57'714.1
2017-Sep-14 18:30N 36°32' W 009°05'713.9
2017-Sep-14 18:00N 36°34' W 009°14'713.5
2017-Sep-14 17:30N 36°38' W 009°21'714.0
2017-Sep-14 17:00N 36°42' W 009°28'713.7
2017-Sep-14 16:30N 36°48' W 009°33'714.3
2017-Sep-14 16:00N 36°55' W 009°35'714.4
2017-Sep-14 15:31N 37°02' W 009°37'714.2
2017-Sep-14 15:00N 37°08' W 009°39'814.4
2017-Sep-14 14:29N 37°16' W 009°42'715.1
2017-Sep-14 14:01N 37°23' W 009°44'714.9
2017-Sep-14 13:30N 37°30' W 009°45'714.6
2017-Sep-14 13:01N 37°37' W 009°47'714.1
2017-Sep-14 12:31N 37°44' W 009°49'713.9
2017-Sep-14 12:00N 37°51' W 009°51'713.9
2017-Sep-14 11:30N 37°57' W 009°54'713.9
2017-Sep-14 11:00N 38°04' W 009°56'714.0
2017-Sep-14 10:31N 38°11' W 009°58'714.2
2017-Sep-14 10:00N 38°18' W 009°60'714.6
2017-Sep-14 09:31N 38°25' W 010°02'714.4
2017-Sep-14 09:00N 38°32' W 010°03'714.9
2017-Sep-14 08:31N 38°39' W 010°05'917.9
2017-Sep-14 08:01N 38°48' W 010°06'917.3
2017-Sep-14 07:31N 38°57' W 010°06'714.5
2017-Sep-14 07:00N 39°04' W 010°06'714.2
2017-Sep-14 06:30N 39°11' W 010°06'714.5
2017-Sep-14 06:00N 39°19' W 010°06'1214.6
2017-Sep-14 05:09N 39°31' W 010°06'314.4
2017-Sep-14 04:57N 39°34' W 010°06'59014.6
2017-Sep-12 12:28N 48°54' W 005°47'715.3
2017-Sep-12 11:59N 48°58' W 005°38'5914.4
2017-Sep-12 07:53N 49°29' W 004°21'1015.8
2017-Sep-12 07:15N 49°34' W 004°08'312.7
2017-Sep-12 07:00N 49°36' W 004°04'612.2
2017-Sep-12 06:30N 49°40' W 003°57'612.5
2017-Sep-12 06:00N 49°43' W 003°48'713.2
2017-Sep-12 05:30N 49°46' W 003°39'713.7
2017-Sep-12 05:01N 49°49' W 003°30'714.1
2017-Sep-12 04:30N 49°53' W 003°21'714.1
2017-Sep-12 04:01N 49°57' W 003°11'713.7
2017-Sep-12 03:31N 49°59' W 003°01'713.4
2017-Sep-12 03:01N 50°00' W 002°51'713.1
2017-Sep-12 02:30N 50°03' W 002°42'712.5
2017-Sep-12 01:59N 50°05' W 002°32'911.3
2017-Sep-12 01:12N 50°08' W 002°19'210.7
2017-Sep-12 00:59N 50°09' W 002°15'510.3
2017-Sep-12 00:30N 50°11' W 002°09'5 9.8
2017-Sep-12 00:00N 50°13' W 002°02'5 9.3
2017-Sep-11 23:30N 50°15' W 001°55'5 9.2
2017-Sep-11 23:00N 50°17' W 001°49'5 9.2
2017-Sep-11 22:30N 50°19' W 001°43'5 9.7
2017-Sep-11 22:00N 50°21' W 001°36'510.2
2017-Sep-11 21:29N 50°24' W 001°28'510.8
2017-Sep-11 21:01N 50°26' W 001°21'713.3
2017-Sep-11 20:30N 50°29' W 001°12'917.1
2017-Sep-11 20:01N 50°33' W 001°00'713.6
2017-Sep-11 19:31N 50°40' W 000°58'4 7.7
2017-Sep-11 19:01N 50°43' W 001°02'713.1
2017-Sep-11 18:30N 50°46' W 001°11'5 9.6
2017-Sep-11 18:00N 50°48' W 001°18'5 9.8
2017-Sep-11 17:30N 50°52' W 001°22'1 2.6
2017-Sep-11 16:59N 50°53' W 001°24'0 0.0
2017-Sep-11 16:29N 50°53' W 001°24'0 0.0
2017-Sep-11 15:59N 50°53' W 001°24'0 0.0
2017-Sep-11 15:29N 50°53' W 001°24'0 0.0
2017-Sep-11 14:59N 50°53' W 001°24'0 0.0
2017-Sep-11 14:29N 50°53' W 001°24'0 0.0
2017-Sep-11 13:56N 50°53' W 001°24'0 0.0
2017-Sep-11 13:26N 50°53' W 001°24'0 0.0
2017-Sep-11 12:59N 50°53' W 001°24'0 0.0
2017-Sep-11 12:29N 50°53' W 001°24'0 0.0
2017-Sep-11 11:59N 50°53' W 001°24'0 0.0
2017-Sep-11 11:29N 50°53' W 001°24'0 0.0
2017-Sep-11 10:59N 50°53' W 001°24'0 0.0
2017-Sep-11 10:29N 50°53' W 001°24'0 0.0
2017-Sep-11 09:59N 50°53' W 001°24'0 0.0
2017-Sep-11 09:29N 50°53' W 001°24'0 0.0
2017-Sep-11 08:59N 50°53' W 001°24'  

Dump ship's entire track history